Time;durP1;ratioP1;P1;durP2;ratioP2;P2;SDS_P1;SDS_P2;PMS_P1;PMS_P2;Temp;Humidity;BMP_temperature;BMP_pressure;BME280_temperature;BME280_humidity;BME280_pressure;Samples;Min_cycle;Max_cycle;Signal;HPM_P1;HPM_P2
2021/01/21 00:00:43;;;;;;;3.78;1.85;;;20.70;42.10;;;;;;4954202;29;20042;-53
2021/01/21 00:03:09;;;;;;;2.30;1.30;;;20.60;42.10;;;;;;4952848;28;20302;-53
2021/01/21 00:05:35;;;;;;;2.85;1.73;;;20.60;42.00;;;;;;4953896;29;20471;-51
2021/01/21 00:08:01;;;;;;;3.30;1.65;;;20.70;42.00;;;;;;4953092;28;20035;-54
2021/01/21 00:10:26;;;;;;;3.40;1.85;;;20.70;42.10;;;;;;4953417;29;20483;-54
2021/01/21 00:12:52;;;;;;;2.72;1.58;;;20.60;42.00;;;;;;4953518;29;20036;-59
2021/01/21 00:15:18;;;;;;;3.92;1.60;;;20.70;42.00;;;;;;4953272;29;20023;-54
2021/01/21 00:17:44;;;;;;;3.22;1.73;;;20.70;42.00;;;;;;4953089;28;20094;-57
2021/01/21 00:20:11;;;;;;;3.35;1.40;;;20.60;41.90;;;;;;4952442;28;20641;-54
2021/01/21 00:22:36;;;;;;;4.68;2.00;;;20.70;42.00;;;;;;4952200;28;20122;-51
2021/01/21 00:25:03;;;;;;;2.35;1.77;;;20.70;42.00;;;;;;4952089;28;20118;-52
2021/01/21 00:27:29;;;;;;;4.35;2.03;;;20.60;41.90;;;;;;4953187;28;20042;-54
2021/01/21 00:29:55;;;;;;;3.53;1.83;;;20.70;42.00;;;;;;4953143;29;20039;-55
2021/01/21 00:32:21;;;;;;;2.88;1.50;;;20.60;41.90;;;;;;4952687;28;20035;-56
2021/01/21 00:34:46;;;;;;;7.85;1.50;;;20.60;41.80;;;;;;4953407;29;20035;-54
2021/01/21 00:37:12;;;;;;;3.22;1.70;;;20.60;41.80;;;;;;4952902;29;20035;-54
2021/01/21 00:39:38;;;;;;;3.25;1.60;;;20.70;41.90;;;;;;4953150;28;20043;-55
2021/01/21 00:42:04;;;;;;;3.08;1.60;;;20.60;41.80;;;;;;4952565;29;20027;-55
2021/01/21 00:44:29;;;;;;;3.20;1.42;;;20.60;41.80;;;;;;4953051;28;20031;-55
2021/01/21 00:46:55;;;;;;;3.28;1.40;;;20.60;41.70;;;;;;4952191;29;20027;-53
2021/01/21 00:49:21;;;;;;;3.47;1.67;;;20.60;41.80;;;;;;4958484;28;20050;-56
2021/01/21 00:51:46;;;;;;;2.78;1.60;;;20.60;41.80;;;;;;4953467;28;20027;-56
2021/01/21 00:54:12;;;;;;;1.88;1.40;;;20.60;41.80;;;;;;4951720;29;20127;-54
2021/01/21 00:56:38;;;;;;;3.78;1.77;;;20.60;41.70;;;;;;4953141;29;20031;-56
2021/01/21 00:59:03;;;;;;;4.43;1.70;;;20.60;41.70;;;;;;4952271;29;20420;-54
2021/01/21 01:01:29;;;;;;;3.50;1.50;;;20.60;41.70;;;;;;4953247;28;20052;-56
2021/01/21 01:03:55;;;;;;;3.58;1.40;;;20.60;41.80;;;;;;4951433;28;20469;-56
2021/01/21 01:06:21;;;;;;;3.13;1.65;;;20.60;41.70;;;;;;4953111;29;20027;-56
2021/01/21 01:08:47;;;;;;;2.75;1.48;;;20.60;41.70;;;;;;4952658;29;20612;-55
2021/01/21 01:11:12;;;;;;;2.20;1.30;;;20.60;41.70;;;;;;4952041;29;20114;-55
2021/01/21 01:13:38;;;;;;;3.78;1.58;;;20.70;41.70;;;;;;4953177;29;20118;-54
2021/01/21 01:16:04;;;;;;;2.78;1.50;;;20.60;41.70;;;;;;4952231;28;20389;-51
2021/01/21 01:18:31;;;;;;;2.00;1.50;;;20.70;41.70;;;;;;4952280;28;20058;-53
2021/01/21 01:20:57;;;;;;;1.83;1.25;;;20.70;41.70;;;;;;4950928;29;20396;-55
2021/01/21 01:23:23;;;;;;;3.22;1.60;;;20.70;41.70;;;;;;4952790;28;20034;-55
2021/01/21 01:25:48;;;;;;;2.25;1.48;;;20.70;41.70;;;;;;4951703;28;20057;-56
2021/01/21 01:28:14;;;;;;;3.78;1.75;;;20.60;41.60;;;;;;4952058;29;20055;-52
2021/01/21 01:30:40;;;;;;;2.85;1.50;;;20.70;41.70;;;;;;4944645;29;20043;-55
2021/01/21 01:33:05;;;;;;;3.83;1.98;;;20.70;41.70;;;;;;4951417;28;20117;-53
2021/01/21 01:35:31;;;;;;;1.63;1.23;;;20.60;41.60;;;;;;4952834;29;20370;-52
2021/01/21 01:37:56;;;;;;;2.40;1.40;;;20.60;41.60;;;;;;4951762;29;20035;-55
2021/01/21 01:40:22;;;;;;;4.20;1.63;;;20.60;41.60;;;;;;4952136;28;20465;-53
2021/01/21 01:42:48;;;;;;;2.80;1.60;;;20.60;41.60;;;;;;4952291;29;20034;-55
2021/01/21 01:45:14;;;;;;;3.10;1.58;;;20.60;41.50;;;;;;4952016;29;20059;-52
2021/01/21 01:47:45;;;;;;;2.33;1.48;;;20.60;41.50;;;;;;4952640;28;20078;-55
2021/01/21 01:50:13;;;;;;;2.45;1.40;;;20.60;41.50;;;;;;4951490;28;20069;-54
2021/01/21 01:52:42;;;;;;;3.97;1.45;;;20.60;41.50;;;;;;4946830;28;20043;-54
2021/01/21 01:55:13;;;;;;;2.58;1.73;;;20.60;41.50;;;;;;4951538;28;20038;-55
2021/01/21 01:57:40;;;;;;;2.70;1.50;;;20.60;41.50;;;;;;4967619;28;20034;-53
2021/01/21 02:00:07;;;;;;;2.85;1.33;;;20.60;41.40;;;;;;4952136;28;20090;-53
2021/01/21 02:02:33;;;;;;;2.00;1.42;;;20.60;41.40;;;;;;4954533;28;20035;-55
2021/01/21 02:05:00;;;;;;;3.95;1.80;;;20.60;41.50;;;;;;4955999;29;20050;-52
2021/01/21 02:07:26;;;;;;;3.05;1.20;;;20.60;41.40;;;;;;4956070;28;20059;-52
2021/01/21 02:09:53;;;;;;;3.05;1.55;;;20.60;41.40;;;;;;4955276;28;20090;-58
2021/01/21 02:12:43;;;;;;;2.17;1.15;;;20.60;41.40;;;;;;4955808;28;20039;-56
2021/01/21 02:15:27;;;;;;;2.65;1.20;;;20.60;41.40;;;;;;4955374;28;20040;-52
2021/01/21 02:18:07;;;;;;;3.17;1.70;;;20.60;41.40;;;;;;4954648;29;20094;-55
2021/01/21 02:20:52;;;;;;;3.35;1.35;;;20.60;41.40;;;;;;4955309;28;20039;-51
2021/01/21 02:23:26;;;;;;;2.15;1.33;;;20.60;41.40;;;;;;4955771;28;20110;-55
2021/01/21 02:25:58;;;;;;;2.15;1.35;;;20.60;41.30;;;;;;4954729;29;20138;-57
2021/01/21 02:28:58;;;;;;;2.20;1.10;;;20.60;41.30;;;;;;4955440;28;20019;-54
2021/01/21 02:31:29;;;;;;;2.30;1.35;;;20.60;41.30;;;;;;4955155;28;20939;-52
2021/01/21 02:34:11;;;;;;;2.83;1.35;;;20.60;41.30;;;;;;4954861;28;20118;-53
2021/01/21 02:36:40;;;;;;;2.30;1.30;;;20.60;41.40;;;;;;4955021;28;20055;-52
2021/01/21 02:39:09;;;;;;;4.03;1.70;;;20.60;41.30;;;;;;4954263;28;20031;-52
2021/01/21 02:41:35;;;;;;;3.15;1.70;;;20.60;41.30;;;;;;4955546;28;20035;-51
2021/01/21 02:44:00;;;;;;;4.88;1.20;;;20.60;41.30;;;;;;4954482;29;20042;-52
2021/01/21 02:46:26;;;;;;;3.42;1.50;;;20.60;41.30;;;;;;4954897;29;20440;-54
2021/01/21 02:48:54;;;;;;;2.42;1.25;;;20.60;41.20;;;;;;4954127;29;20035;-55
2021/01/21 02:51:42;;;;;;;1.67;1.27;;;20.70;41.30;;;;;;4953989;29;20499;-49
2021/01/21 02:54:18;;;;;;;2.25;1.10;;;20.60;41.20;;;;;;4954410;29;20031;-51
2021/01/21 02:56:45;;;;;;;3.13;1.20;;;20.60;41.30;;;;;;4955042;28;20396;-49
2021/01/21 02:59:16;;;;;;;1.65;1.20;;;20.60;41.30;;;;;;4954304;28;20083;-51
2021/01/21 03:01:45;;;;;;;2.70;1.50;;;20.60;41.20;;;;;;4984965;28;20035;-51
2021/01/21 03:04:11;;;;;;;2.97;1.30;;;20.60;41.20;;;;;;4947356;29;20053;-50
2021/01/21 03:06:41;;;;;;;1.98;1.08;;;20.70;41.20;;;;;;4955750;28;20058;-50
2021/01/21 03:09:07;;;;;;;1.77;1.13;;;20.60;41.20;;;;;;4954130;28;20035;-51
2021/01/21 03:11:32;;;;;;;1.33;0.93;;;20.70;41.20;;;;;;4955458;28;20170;-53
2021/01/21 03:13:58;;;;;;;2.55;1.40;;;20.60;41.20;;;;;;4953611;28;20035;-53
2021/01/21 03:16:24;;;;;;;1.83;1.38;;;20.60;41.10;;;;;;4954179;29;20028;-53
2021/01/21 03:18:52;;;;;;;1.80;1.38;;;20.60;41.10;;;;;;4954827;28;20038;-54
2021/01/21 03:21:19;;;;;;;2.17;1.13;;;20.60;41.10;;;;;;4946867;29;20172;-49
2021/01/21 03:23:46;;;;;;;2.92;1.48;;;20.60;41.10;;;;;;4954741;28;20469;-53
2021/01/21 03:26:12;;;;;;;4.85;1.30;;;20.60;41.10;;;;;;4954053;28;20668;-49
2021/01/21 03:28:39;;;;;;;1.42;0.93;;;20.60;41.00;;;;;;4946945;28;20035;-54
2021/01/21 03:31:05;;;;;;;1.88;1.20;;;20.70;41.10;;;;;;4953598;28;20031;-50
2021/01/21 03:33:30;;;;;;;1.95;1.10;;;20.60;41.00;;;;;;4954839;28;20034;-53
2021/01/21 03:35:56;;;;;;;2.80;1.30;;;20.60;41.00;;;;;;4953893;28;20110;-52
2021/01/21 03:38:22;;;;;;;1.98;1.10;;;20.60;41.00;;;;;;4954462;29;20392;-55
2021/01/21 03:40:47;;;;;;;1.88;1.10;;;20.60;41.00;;;;;;4954548;29;20039;-51
2021/01/21 03:43:13;;;;;;;1.83;1.23;;;20.60;41.00;;;;;;4953368;29;20023;-54
2021/01/21 03:45:39;;;;;;;1.98;1.35;;;20.60;41.00;;;;;;4954110;28;20051;-55
2021/01/21 03:48:05;;;;;;;1.63;1.02;;;20.60;41.00;;;;;;4953704;28;20036;-53
2021/01/21 03:50:31;;;;;;;2.95;1.27;;;20.60;40.90;;;;;;4956032;28;20035;-53
2021/01/21 03:52:56;;;;;;;1.92;1.02;;;20.60;40.80;;;;;;4953632;28;20049;-54
2021/01/21 03:55:22;;;;;;;2.20;1.30;;;20.60;40.80;;;;;;4954041;29;20031;-52
2021/01/21 03:57:47;;;;;;;2.92;1.23;;;20.60;40.80;;;;;;4954229;29;20031;-53
2021/01/21 04:00:13;;;;;;;2.88;0.95;;;20.60;41.50;;;;;;4970177;28;20043;-53
2021/01/21 04:02:39;;;;;;;2.17;1.38;;;20.60;40.80;;;;;;4952587;29;20027;-55
2021/01/21 04:05:05;;;;;;;1.83;1.27;;;20.60;40.80;;;;;;4953673;29;20401;-54
2021/01/21 04:07:30;;;;;;;2.10;1.00;;;20.70;40.80;;;;;;4953840;28;20469;-53
2021/01/21 04:09:56;;;;;;;2.47;1.58;;;20.70;40.80;;;;;;4952888;29;20035;-52
2021/01/21 04:12:22;;;;;;;3.13;1.00;;;20.60;40.70;;;;;;4954365;29;20036;-52
2021/01/21 04:14:47;;;;;;;2.67;1.17;;;20.60;40.70;;;;;;4951215;29;20023;-51
2021/01/21 04:17:13;;;;;;;2.40;0.98;;;20.60;40.70;;;;;;4952651;28;20122;-53
2021/01/21 04:19:38;;;;;;;2.67;0.93;;;20.70;40.70;;;;;;4948696;29;20035;-49
2021/01/21 04:22:04;;;;;;;2.58;1.13;;;20.70;40.70;;;;;;4951692;29;20493;-54
2021/01/21 04:24:30;;;;;;;2.42;1.02;;;20.70;40.70;;;;;;4952405;28;20551;-53
2021/01/21 04:26:55;;;;;;;2.30;0.70;;;20.60;40.60;;;;;;4951560;28;20473;-53
2021/01/21 04:29:21;;;;;;;2.65;1.00;;;20.60;40.60;;;;;;4952593;28;20469;-53
2021/01/21 04:31:47;;;;;;;1.27;0.88;;;20.70;40.70;;;;;;4952453;29;20035;-53
2021/01/21 04:34:12;;;;;;;2.33;0.77;;;20.60;40.60;;;;;;4951849;29;20035;-55
2021/01/21 04:36:38;;;;;;;5.72;1.05;;;20.60;40.60;;;;;;4952745;29;20042;-54
2021/01/21 04:39:04;;;;;;;1.63;0.93;;;20.60;40.60;;;;;;4951746;28;20397;-52
2021/01/21 04:41:30;;;;;;;3.13;1.10;;;20.70;40.70;;;;;;4950813;29;20122;-53
2021/01/21 04:43:56;;;;;;;2.25;1.30;;;20.60;40.60;;;;;;4951699;29;20180;-50
2021/01/21 04:46:21;;;;;;;1.35;1.00;;;20.60;41.20;;;;;;4952436;28;20031;-55
2021/01/21 04:48:48;;;;;;;2.55;0.95;;;20.60;40.60;;;;;;4950941;29;20033;-51
2021/01/21 04:51:16;;;;;;;2.17;0.82;;;20.70;40.60;;;;;;4951728;28;20086;-54
2021/01/21 04:53:48;;;;;;;3.75;1.50;;;20.60;40.50;;;;;;4952630;28;20082;-49
2021/01/21 04:56:22;;;;;;;2.55;1.00;;;20.60;40.50;;;;;;4949861;29;20501;-52
2021/01/21 04:58:51;;;;;;;1.20;0.85;;;20.60;40.50;;;;;;4949842;29;20106;-52
2021/01/21 05:01:18;;;;;;;1.27;0.98;;;20.70;40.60;;;;;;4951637;28;20093;-48
2021/01/21 05:03:45;;;;;;;1.55;0.80;;;20.60;40.50;;;;;;4952430;28;20443;-49
2021/01/21 05:06:11;;;;;;;1.08;0.85;;;20.70;40.50;;;;;;4951210;28;20037;-50
2021/01/21 05:08:37;;;;;;;1.25;0.90;;;20.70;40.50;;;;;;4952290;28;20023;-52
2021/01/21 05:11:02;;;;;;;1.38;0.80;;;20.70;40.50;;;;;;4951249;28;20107;-52
2021/01/21 05:13:28;;;;;;;1.75;0.90;;;20.70;40.40;;;;;;4952209;28;20034;-52
2021/01/21 05:15:54;;;;;;;1.70;0.88;;;20.60;40.40;;;;;;4951540;29;20475;-58
2021/01/21 05:18:36;;;;;;;1.10;0.88;;;20.60;40.40;;;;;;4951491;29;20164;-52
2021/01/21 05:21:06;;;;;;;0.98;0.60;;;20.60;40.40;;;;;;4950301;29;20050;-54
2021/01/21 05:23:32;;;;;;;1.73;1.00;;;20.60;40.40;;;;;;4950390;29;20061;-54
2021/01/21 05:25:58;;;;;;;1.30;0.82;;;20.60;40.30;;;;;;4950677;28;20054;-55
2021/01/21 05:28:27;;;;;;;0.80;0.68;;;20.70;40.40;;;;;;4951723;28;20042;-51
2021/01/21 05:30:53;;;;;;;1.63;0.77;;;20.70;40.40;;;;;;4951655;28;20094;-57
2021/01/21 05:33:21;;;;;;;1.55;0.90;;;20.70;40.40;;;;;;4951573;28;20031;-49
2021/01/21 05:35:52;;;;;;;1.73;0.70;;;20.60;40.30;;;;;;4951350;28;20035;-53
2021/01/21 05:38:17;;;;;;;1.08;0.70;;;20.60;40.30;;;;;;4955328;28;20035;-52
2021/01/21 05:40:46;;;;;;;1.92;1.00;;;20.70;40.30;;;;;;4955581;28;20035;-50
2021/01/21 05:43:14;;;;;;;1.95;0.70;;;20.70;40.30;;;;;;4953037;29;20023;-55
2021/01/21 05:45:44;;;;;;;2.83;0.90;;;20.70;40.30;;;;;;4956122;28;20055;-54
2021/01/21 05:48:11;;;;;;;2.53;0.80;;;20.70;40.30;;;;;;4953881;29;20047;-51
2021/01/21 05:50:37;;;;;;;1.30;0.70;;;20.70;40.20;;;;;;4957593;28;20477;-54
2021/01/21 05:53:06;;;;;;;1.63;0.70;;;20.70;40.20;;;;;;4955361;28;20107;-57
2021/01/21 05:55:35;;;;;;;0.68;0.60;;;20.70;40.30;;;;;;4949339;29;20094;-50
2021/01/21 05:58:01;;;;;;;1.20;0.75;;;20.70;40.20;;;;;;4955507;28;20027;-53
2021/01/21 06:00:28;;;;;;;1.17;0.63;;;20.70;40.20;;;;;;4952801;29;20038;-49
2021/01/21 06:02:54;;;;;;;2.35;0.80;;;20.70;40.20;;;;;;4953496;28;20039;-50
2021/01/21 06:05:23;;;;;;;1.98;0.90;;;20.70;40.20;;;;;;4954543;29;20042;-53
2021/01/21 06:07:51;;;;;;;2.33;0.70;;;20.70;40.10;;;;;;4953425;29;20035;-56
2021/01/21 06:10:18;;;;;;;1.85;1.00;;;20.70;40.20;;;;;;4953835;28;20036;-56
2021/01/21 06:12:49;;;;;;;1.20;0.70;;;20.70;40.10;;;;;;4954222;28;20075;-56
2021/01/21 06:15:15;;;;;;;8.27;2.35;;;20.70;40.10;;;;;;4953981;28;20035;-53
2021/01/21 06:17:46;;;;;;;1.23;0.90;;;20.70;40.10;;;;;;4954061;28;20110;-55
2021/01/21 06:20:12;;;;;;;1.02;0.60;;;20.70;40.10;;;;;;4952754;28;20066;-53
2021/01/21 06:22:43;;;;;;;2.33;0.68;;;20.70;40.10;;;;;;4954274;28;20122;-56
2021/01/21 06:25:14;;;;;;;1.23;0.63;;;20.70;40.10;;;;;;4952905;28;20090;-54
2021/01/21 06:27:45;;;;;;;0.77;0.52;;;20.70;40.10;;;;;;4953372;28;20655;-48
2021/01/21 06:30:13;;;;;;;0.93;0.60;;;20.70;40.10;;;;;;4953586;28;20031;-55
2021/01/21 06:33:01;;;;;;;1.05;0.50;;;20.70;40.10;;;;;;4953468;28;20031;-51
2021/01/21 06:35:34;;;;;;;1.55;0.85;;;20.70;40.00;;;;;;4951932;29;20038;-54
2021/01/21 06:38:07;;;;;;;1.70;0.80;;;20.70;40.10;;;;;;4952736;29;20069;-55
2021/01/21 06:40:35;;;;;;;1.80;0.50;;;20.70;40.10;;;;;;4954166;28;20039;-55
2021/01/21 06:43:30;;;;;;;1.00;0.60;;;20.70;40.10;;;;;;4952666;28;20101;-56
2021/01/21 06:46:00;;;;;;;1.75;0.70;;;20.70;40.10;;;;;;4951792;29;20485;-54
2021/01/21 06:48:27;;;;;;;1.25;0.60;;;20.60;40.00;;;;;;4950862;28;20032;-55
2021/01/21 06:50:53;;;;;;;0.63;0.40;;;20.70;40.00;;;;;;4952429;28;20110;-55
2021/01/21 06:53:19;;;;;;;1.88;0.70;;;20.70;40.00;;;;;;4953240;28;20086;-50
2021/01/21 06:55:50;;;;;;;0.82;0.70;;;20.60;39.90;;;;;;4953657;29;20035;-54
2021/01/21 06:58:49;;;;;;;1.73;0.63;;;20.60;40.00;;;;;;4952875;28;20133;-56
2021/01/21 07:01:32;;;;;;;1.00;0.60;;;20.60;40.00;;;;;;4932055;28;20051;-56
2021/01/21 07:04:08;;;;;;;0.52;0.40;;;20.70;39.90;;;;;;4952168;29;20035;-53
2021/01/21 07:06:52;;;;;;;3.05;0.40;;;20.70;40.00;;;;;;4953149;29;20034;-57
2021/01/21 07:09:28;;;;;;;1.55;0.80;;;20.60;40.00;;;;;;4950806;29;20039;-57
2021/01/21 07:11:59;;;;;;;1.65;0.60;;;20.70;39.90;;;;;;4951722;29;20424;-57
2021/01/21 07:14:32;;;;;;;1.37;0.83;;;20.70;39.90;;;;;;4947769;29;20042;-56
2021/01/21 07:17:06;;;;;;;1.33;0.60;;;20.70;39.90;;;;;;4951112;28;20118;-56
2021/01/21 07:19:48;;;;;;;4.43;0.60;;;20.70;40.00;;;;;;4952371;29;20035;-54
2021/01/21 07:22:21;;;;;;;3.22;0.95;;;20.70;39.90;;;;;;4951213;29;20114;-54
2021/01/21 07:24:58;;;;;;;1.02;0.50;;;20.70;39.90;;;;;;4952302;29;20176;-57
2021/01/21 07:27:27;;;;;;;1.35;0.60;;;20.70;40.00;;;;;;4950549;29;20133;-57
2021/01/21 07:30:16;;;;;;;0.93;0.60;;;20.70;40.00;;;;;;4952376;28;20042;-57
2021/01/21 07:32:42;;;;;;;1.08;0.60;;;20.70;40.00;;;;;;4950176;29;20034;-56
2021/01/21 07:35:35;;;;;;;4.00;0.50;;;20.70;40.00;;;;;;4951557;28;20059;-55
2021/01/21 07:38:02;;;;;;;2.28;0.85;;;20.70;40.00;;;;;;4949839;28;20086;-52
2021/01/21 07:40:45;;;;;;;1.10;0.50;;;20.70;40.00;;;;;;4952540;28;20042;-55
2021/01/21 07:43:11;;;;;;;0.77;0.57;;;20.70;40.00;;;;;;4950122;29;20043;-56
2021/01/21 07:45:38;;;;;;;3.33;0.60;;;20.70;40.10;;;;;;4951869;29;20027;-51
2021/01/21 07:48:20;;;;;;;2.30;0.68;;;20.70;40.10;;;;;;4951395;28;20050;-57
2021/01/21 07:50:47;;;;;;;0.63;0.50;;;20.80;40.10;;;;;;4951639;28;20476;-56
2021/01/21 07:53:22;;;;;;;1.98;0.68;;;20.90;40.00;;;;;;4951537;28;20038;-53
2021/01/21 07:55:50;;;;;;;1.88;0.80;;;20.90;39.90;;;;;;4951965;29;20031;-52
2021/01/21 07:58:16;;;;;;;4.07;0.88;;;20.90;39.90;;;;;;4953212;28;20059;-54
2021/01/21 08:00:43;;;;;;;1.50;0.50;;;20.90;39.90;;;;;;4951332;28;20043;-55
2021/01/21 08:03:09;;;;;;;1.65;0.95;;;21.00;40.50;;;;;;4951926;28;20058;-51
2021/01/21 08:05:35;;;;;;;6.63;0.80;;;21.10;39.80;;;;;;4953318;28;20023;-53
2021/01/21 08:08:03;;;;;;;2.30;0.60;;;21.10;39.90;;;;;;4953158;28;20039;-54
2021/01/21 08:10:37;;;;;;;0.75;0.63;;;21.10;39.90;;;;;;4953271;28;20110;-52
2021/01/21 08:13:14;;;;;;;1.10;0.60;;;21.10;39.90;;;;;;4952622;28;20035;-50
2021/01/21 08:15:41;;;;;;;2.42;0.60;;;21.20;40.00;;;;;;4953181;29;20046;-58
2021/01/21 08:18:14;;;;;;;2.80;0.60;;;21.20;39.90;;;;;;4952867;28;20034;-56
2021/01/21 08:20:40;;;;;;;3.17;0.52;;;21.20;40.10;;;;;;4953808;28;20046;-58
2021/01/21 08:23:11;;;;;;;1.65;0.50;;;21.20;39.80;;;;;;4952103;28;20038;-52
2021/01/21 08:25:45;;;;;;;2.33;0.70;;;21.20;39.80;;;;;;4953519;28;20126;-57
2021/01/21 08:28:15;;;;;;;2.63;0.90;;;21.30;39.80;;;;;;4952970;28;20240;-54
2021/01/21 08:30:41;;;;;;;1.63;0.65;;;21.30;39.80;;;;;;4952025;28;20043;-55
2021/01/21 08:33:17;;;;;;;3.55;1.85;;;21.30;39.80;;;;;;4952450;28;20039;-54
2021/01/21 08:35:55;;;;;;;1.15;0.50;;;21.30;39.80;;;;;;4953525;28;20045;-54
2021/01/21 08:38:26;;;;;;;1.98;0.75;;;21.30;39.80;;;;;;4953556;28;20027;-57
2021/01/21 08:40:54;;;;;;;2.95;0.50;;;21.40;39.80;;;;;;4947429;29;20051;-58
2021/01/21 08:43:22;;;;;;;1.50;0.50;;;21.40;39.80;;;;;;4953626;28;20357;-57
2021/01/21 08:45:57;;;;;;;4.78;0.60;;;21.40;39.90;;;;;;4954215;28;20016;-55
2021/01/21 08:48:29;;;;;;;2.10;0.70;;;21.50;40.10;;;;;;4953283;29;20043;-56
2021/01/21 08:50:56;;;;;;;2.88;0.57;;;21.60;40.00;;;;;;4954845;28;20027;-52
2021/01/21 08:53:24;;;;;;;4.38;0.90;;;21.60;40.60;;;;;;4952688;28;20035;-53
2021/01/21 08:55:52;;;;;;;3.85;0.65;;;21.60;41.00;;;;;;4950552;29;20027;-57
2021/01/21 08:58:26;;;;;;;6.80;0.77;;;21.60;40.70;;;;;;4953281;28;20062;-58
2021/01/21 09:01:18;;;;;;;5.65;0.80;;;21.50;39.30;;;;;;4952239;28;20041;-58
2021/01/21 09:03:48;;;;;;;5.03;1.23;;;21.40;40.20;;;;;;4951002;28;20047;-55
2021/01/21 09:06:16;;;;;;;2.03;0.73;;;21.40;39.90;;;;;;4944610;28;20031;-56
2021/01/21 09:09:00;;;;;;;3.80;0.70;;;21.30;39.70;;;;;;4944392;28;20055;-59
2021/01/21 09:11:32;;;;;;;4.30;0.85;;;21.30;39.80;;;;;;4945443;29;20031;-56
2021/01/21 09:14:02;;;;;;;6.15;0.50;;;21.30;39.90;;;;;;4952215;28;20039;-54
2021/01/21 09:16:45;;;;;;;3.72;0.77;;;21.30;40.30;;;;;;4953568;28;20024;-58
2021/01/21 09:19:16;;;;;;;4.30;0.55;;;21.30;39.70;;;;;;4951882;28;20031;-52
2021/01/21 09:21:57;;;;;;;1.38;0.40;;;21.30;39.90;;;;;;4946616;28;20043;-54
2021/01/21 09:24:23;;;;;;;4.15;0.85;;;21.30;39.70;;;;;;4952925;28;20058;-55
2021/01/21 09:27:08;;;;;;;3.25;0.65;;;21.30;39.50;;;;;;4953300;28;20024;-55
2021/01/21 09:29:50;;;;;;;2.75;0.60;;;21.20;39.70;;;;;;4953115;28;20441;-58
2021/01/21 09:32:17;;;;;;;1.33;0.40;;;21.20;39.80;;;;;;4951909;29;20027;-57
2021/01/21 09:35:00;;;;;;;3.65;0.57;;;21.30;39.70;;;;;;4953272;28;20036;-58
2021/01/21 09:37:28;;;;;;;4.30;0.52;;;21.40;39.60;;;;;;4952693;28;20200;-48
2021/01/21 09:39:54;;;;;;;4.25;0.70;;;21.40;39.80;;;;;;4949670;28;20485;-55
2021/01/21 09:42:20;;;;;;;4.35;0.90;;;21.40;39.90;;;;;;4953354;28;20113;-56
2021/01/21 09:44:46;;;;;;;6.80;0.80;;;21.40;39.70;;;;;;4953145;28;20114;-53
2021/01/21 09:47:12;;;;;;;4.38;0.90;;;21.30;39.60;;;;;;4952349;28;20601;-58
2021/01/21 09:49:40;;;;;;;5.65;0.75;;;21.30;39.80;;;;;;4961795;28;20165;-56
2021/01/21 09:52:06;;;;;;;4.57;0.80;;;21.30;39.80;;;;;;4971969;28;20461;-56
2021/01/21 09:54:32;;;;;;;1.45;0.70;;;21.30;39.70;;;;;;4972336;28;20113;-56
2021/01/21 09:56:58;;;;;;;7.43;0.70;;;21.20;38.90;;;;;;4955418;28;20102;-56
2021/01/21 09:59:24;;;;;;;3.58;0.60;;;21.10;39.80;;;;;;4952015;29;20122;-57
2021/01/21 10:01:50;;;;;;;5.85;0.52;;;21.10;38.10;;;;;;4952878;28;20039;-56
2021/01/21 10:04:16;;;;;;;2.47;0.70;;;20.70;37.10;;;;;;4952304;29;20031;-55
2021/01/21 10:06:42;;;;;;;3.30;0.60;;;20.60;38.00;;;;;;4952549;28;20059;-58
2021/01/21 10:09:07;;;;;;;0.73;0.50;;;20.60;38.30;;;;;;4952508;28;20035;-56
2021/01/21 10:11:33;;;;;;;3.63;1.20;;;20.70;38.30;;;;;;4952510;28;20032;-53
2021/01/21 10:14:00;;;;;;;7.40;0.95;;;20.70;38.70;;;;;;4952284;28;20058;-54
2021/01/21 10:16:30;;;;;;;3.17;0.50;;;20.80;38.80;;;;;;4953431;28;20035;-56
2021/01/21 10:18:56;;;;;;;3.60;0.60;;;20.80;38.10;;;;;;4951915;28;20053;-58
2021/01/21 10:21:24;;;;;;;2.92;0.60;;;20.70;37.90;;;;;;4951485;29;20044;-55
2021/01/21 10:23:50;;;;;;;2.67;0.70;;;20.70;37.40;;;;;;4953718;28;20039;-56
2021/01/21 10:26:17;;;;;;;2.17;0.50;;;20.60;37.30;;;;;;4956019;28;20055;-55
2021/01/21 10:28:42;;;;;;;5.28;0.70;;;20.60;37.40;;;;;;4956409;28;20488;-56
2021/01/21 10:31:08;;;;;;;0.95;0.40;;;20.60;37.00;;;;;;4955763;28;20119;-53
2021/01/21 10:33:34;;;;;;;0.82;0.70;;;20.50;37.00;;;;;;4956174;29;20054;-56
2021/01/21 10:36:00;;;;;;;1.65;0.45;;;20.50;37.00;;;;;;4954754;28;20050;-54
2021/01/21 10:38:25;;;;;;;0.60;0.50;;;20.40;36.30;;;;;;4956348;29;20027;-53
2021/01/21 10:40:51;;;;;;;1.05;0.60;;;19.00;37.20;;;;;;4955414;29;20106;-54
2021/01/21 10:43:16;;;;;;;1.73;0.57;;;19.00;37.90;;;;;;4956042;28;20034;-55
2021/01/21 10:45:43;;;;;;;1.65;0.70;;;19.50;37.80;;;;;;4956189;28;20106;-58
2021/01/21 10:48:09;;;;;;;2.30;0.88;;;19.90;37.80;;;;;;4957578;28;20046;-56
2021/01/21 10:50:35;;;;;;;2.80;1.40;;;20.20;37.70;;;;;;4956594;28;20038;-57
2021/01/21 10:53:01;;;;;;;1.60;1.00;;;20.40;37.70;;;;;;4954767;29;20035;-55
2021/01/21 10:55:26;;;;;;;1.92;0.90;;;20.50;37.70;;;;;;4972260;28;20037;-58
2021/01/21 10:57:53;;;;;;;4.63;1.20;;;20.60;37.80;;;;;;4973943;28;20027;-56
2021/01/21 11:00:20;;;;;;;2.92;0.90;;;20.60;38.00;;;;;;4975173;28;20049;-57
2021/01/21 11:02:46;;;;;;;4.38;1.00;;;20.70;38.10;;;;;;4975062;28;20041;-58
2021/01/21 11:05:12;;;;;;;3.08;0.80;;;20.70;38.30;;;;;;4974539;28;20026;-57
2021/01/21 11:07:38;;;;;;;4.30;0.90;;;20.80;38.60;;;;;;4973167;28;20384;-57
2021/01/21 11:10:04;;;;;;;2.08;0.85;;;20.80;38.70;;;;;;4968772;28;20026;-56
2021/01/21 11:12:30;;;;;;;3.28;1.17;;;20.80;38.90;;;;;;4973558;28;20041;-58
2021/01/21 11:14:56;;;;;;;3.55;1.38;;;20.80;38.90;;;;;;4973921;28;20027;-57
2021/01/21 11:17:21;;;;;;;2.72;0.98;;;20.80;39.10;;;;;;4974536;28;20027;-58
2021/01/21 11:19:47;;;;;;;2.85;1.20;;;20.80;39.20;;;;;;4963789;28;20042;-56
2021/01/21 11:22:13;;;;;;;2.42;0.80;;;20.80;39.20;;;;;;4973517;28;20038;-56
2021/01/21 11:24:39;;;;;;;3.10;0.80;;;20.90;39.50;;;;;;4964802;28;20039;-58
2021/01/21 11:27:05;;;;;;;2.92;0.90;;;20.90;39.50;;;;;;4954378;28;20023;-59
2021/01/21 11:29:31;;;;;;;2.08;0.73;;;20.90;39.60;;;;;;4954612;28;20023;-57
2021/01/21 11:31:57;;;;;;;5.45;0.95;;;20.90;39.70;;;;;;4954209;28;20097;-56
2021/01/21 11:34:22;;;;;;;1.95;1.10;;;20.90;40.50;;;;;;4955052;28;20457;-58
2021/01/21 11:36:50;;;;;;;1.80;0.80;;;20.90;39.90;;;;;;4954802;28;20461;-58
2021/01/21 11:39:16;;;;;;;1.65;0.80;;;20.90;39.90;;;;;;4957705;28;20106;-58
2021/01/21 11:41:41;;;;;;;3.75;0.90;;;20.90;40.00;;;;;;4954230;28;20130;-58
2021/01/21 11:44:39;;;;;;;2.05;0.77;;;20.90;40.00;;;;;;4954028;29;20042;-58
2021/01/21 11:47:05;;;;;;;3.25;1.02;;;20.90;40.10;;;;;;4940008;28;20067;-58
2021/01/21 11:49:30;;;;;;;3.35;1.30;;;21.00;40.20;;;;;;4961798;28;20069;-58
2021/01/21 11:51:58;;;;;;;1.60;0.70;;;21.00;40.30;;;;;;4972993;28;20038;-56
2021/01/21 11:54:24;;;;;;;1.92;0.70;;;21.00;40.30;;;;;;4974229;28;20038;-56
2021/01/21 11:56:49;;;;;;;1.05;0.60;;;21.00;40.30;;;;;;4974018;28;20362;-54
2021/01/21 11:59:15;;;;;;;2.25;0.90;;;21.00;40.40;;;;;;4973252;28;20033;-57
2021/01/21 12:01:41;;;;;;;2.30;1.08;;;21.00;40.40;;;;;;4973773;28;20456;-58
2021/01/21 12:04:07;;;;;;;1.80;0.70;;;21.00;40.50;;;;;;4973251;28;20054;-58
2021/01/21 12:06:33;;;;;;;1.40;0.68;;;21.00;40.40;;;;;;4973641;28;20061;-57
2021/01/21 12:08:58;;;;;;;2.08;1.00;;;21.00;40.40;;;;;;4966607;28;20685;-58
2021/01/21 12:11:24;;;;;;;2.65;1.00;;;21.00;40.50;;;;;;4960487;28;20086;-56
2021/01/21 12:13:50;;;;;;;1.80;0.73;;;21.00;40.60;;;;;;4953619;28;20417;-55
2021/01/21 12:16:15;;;;;;;3.15;0.98;;;21.10;40.60;;;;;;4953454;29;20124;-57
2021/01/21 12:18:41;;;;;;;1.95;0.77;;;21.00;40.70;;;;;;4953122;29;20523;-57
2021/01/21 12:21:06;;;;;;;1.85;0.95;;;21.00;40.80;;;;;;4953298;29;20463;-58
2021/01/21 12:23:32;;;;;;;1.52;0.80;;;21.00;40.90;;;;;;4953971;29;20106;-57
2021/01/21 12:25:59;;;;;;;2.40;1.42;;;21.00;40.90;;;;;;4953376;29;20533;-57
2021/01/21 12:28:25;;;;;;;1.50;0.70;;;21.00;41.00;;;;;;4953381;28;20498;-57
2021/01/21 12:30:52;;;;;;;2.50;0.90;;;21.10;41.00;;;;;;4953096;28;20062;-52
2021/01/21 12:33:18;;;;;;;1.10;0.60;;;21.00;40.90;;;;;;4953218;28;20035;-58
2021/01/21 12:35:44;;;;;;;5.45;0.98;;;21.10;41.00;;;;;;4954034;28;20450;-56
2021/01/21 12:38:09;;;;;;;1.30;0.70;;;21.00;41.00;;;;;;4953116;28;20819;-51
2021/01/21 12:40:35;;;;;;;2.22;0.90;;;21.00;41.10;;;;;;4956031;28;20035;-52
2021/01/21 12:43:01;;;;;;;2.13;0.88;;;21.00;41.10;;;;;;4953197;29;20035;-57
2021/01/21 12:45:26;;;;;;;1.80;0.93;;;21.00;41.20;;;;;;4954166;28;20031;-57
2021/01/21 12:47:52;;;;;;;1.65;0.70;;;21.10;41.30;;;;;;4952146;28;20118;-53
2021/01/21 12:50:18;;;;;;;3.95;0.90;;;21.10;41.30;;;;;;4967241;28;20468;-57
2021/01/21 12:52:43;;;;;;;4.07;1.25;;;21.10;41.40;;;;;;4973056;28;20106;-56
2021/01/21 12:55:11;;;;;;;2.20;0.70;;;21.00;41.30;;;;;;4972222;28;20058;-55